Time;durP1;ratioP1;P1;durP2;ratioP2;P2;SDS_P1;SDS_P2;PMS_P1;PMS_P2;Temp;Humidity;BMP_temperature;BMP_pressure;BME280_temperature;BME280_humidity;BME280_pressure;Samples;Min_cycle;Max_cycle;Signal;HPM_P1;HPM_P2
2021/04/09 00:00:07;;;;;;;6.93;1.80;;;;;;;14.80;49.07;101702.25;5048077;28;20091;-73
2021/04/09 00:02:34;;;;;;;8.35;2.05;;;;;;;14.76;48.83;101688.03;5042809;28;20492;-74
2021/04/09 00:05:04;;;;;;;13.88;2.90;;;;;;;14.64;48.95;101693.16;5038458;28;20065;-74
2021/04/09 00:07:32;;;;;;;10.50;2.70;;;;;;;14.56;49.05;101687.75;5048639;28;20116;-74
2021/04/09 00:13:21;;;;;;;8.27;2.03;;;;;;;14.49;48.34;101672.59;5035504;23;21007;-74
2021/04/09 00:22:02;;;;;;;8.32;1.75;;;;;;;14.49;47.42;101682.31;5077050;22;20106;-74
2021/04/09 00:27:52;;;;;;;8.35;1.67;;;;;;;14.29;46.16;101666.97;4543492;22;20575;-75
2021/04/09 00:30:24;;;;;;;10.45;2.53;;;;;;;14.33;46.26;101676.75;4992530;28;20113;-74
2021/04/09 00:32:51;;;;;;;11.98;2.92;;;;;;;14.38;46.34;101675.94;4992284;28;20046;-74
2021/04/09 00:35:18;;;;;;;11.77;3.17;;;;;;;14.44;46.63;101662.78;4991755;28;20053;-73
2021/04/09 00:37:45;;;;;;;7.32;1.90;;;;;;;14.45;47.04;101668.09;4991935;28;20494;-74
2021/04/09 00:40:13;;;;;;;10.18;2.17;;;;;;;14.39;47.01;101659.13;4991875;28;20050;-74
2021/04/09 00:42:41;;;;;;;11.82;2.03;;;;;;;14.43;47.13;101671.63;4991922;28;20037;-74
2021/04/09 00:45:13;;;;;;;8.90;2.35;;;;;;;14.45;47.39;101670.75;4992317;28;20126;-75
2021/04/09 00:47:41;;;;;;;9.07;1.50;;;;;;;14.40;47.56;101671.56;4991584;28;20045;-74
2021/04/09 00:50:09;;;;;;;8.73;1.80;;;;;;;14.37;47.67;101669.72;4991505;28;20129;-74
2021/04/09 00:52:38;;;;;;;10.57;2.22;;;;;;;14.32;47.66;101660.78;4972945;28;20145;-75
2021/04/09 00:55:07;;;;;;;5.78;1.42;;;;;;;14.32;47.41;101659.00;4987362;28;20122;-74
2021/04/09 00:57:36;;;;;;;7.75;2.58;;;;;;;14.28;46.80;101670.47;4991540;28;20038;-74
2021/04/09 01:00:05;;;;;;;5.47;1.80;;;;;;;14.29;46.41;101664.31;4992162;28;20038;-74
2021/04/09 01:02:34;;;;;;;15.73;2.47;;;;;;;14.29;45.80;101668.72;4990907;28;20214;-74
2021/04/09 01:05:01;;;;;;;7.35;1.60;;;;;;;14.28;45.41;101667.81;4991448;28;20085;-74
2021/04/09 01:07:29;;;;;;;8.02;2.13;;;;;;;14.30;45.22;101667.84;4991888;28;20066;-74
2021/04/09 01:09:56;;;;;;;7.35;2.20;;;;;;;14.31;45.63;101666.94;4991434;28;20062;-74
2021/04/09 01:12:23;;;;;;;12.63;2.40;;;;;;;14.23;46.00;101668.63;4991568;28;20043;-74
2021/04/09 01:14:51;;;;;;;9.57;1.80;;;;;;;14.24;46.27;101670.41;4991406;28;20109;-73
2021/04/09 01:17:27;;;;;;;4.88;1.40;;;;;;;14.20;46.02;101674.78;4991191;28;20035;-73
2021/04/09 01:20:37;;;;;;;7.47;1.70;;;;;;;14.26;46.19;101666.00;4991024;28;20035;-73
2021/04/09 01:23:29;;;;;;;7.53;1.50;;;;;;;14.34;46.54;101678.53;4979110;28;20038;-74
2021/04/09 01:26:29;;;;;;;9.55;2.08;;;;;;;14.29;46.81;101663.41;4979485;28;20069;-74
2021/04/09 01:29:20;;;;;;;8.63;2.03;;;;;;;14.25;46.69;101667.75;4991383;28;20075;-74
2021/04/09 01:31:52;;;;;;;10.30;2.35;;;;;;;14.16;46.87;101667.66;4991158;28;20121;-73
2021/04/09 01:34:19;;;;;;;7.00;1.80;;;;;;;14.20;46.84;101665.91;4991422;28;20129;-73
2021/04/09 01:36:51;;;;;;;6.82;1.80;;;;;;;14.21;46.81;101655.31;4990997;28;20121;-73
2021/04/09 01:39:23;;;;;;;7.15;1.90;;;;;;;14.22;46.83;101666.84;4991488;28;20077;-74
2021/04/09 01:41:53;;;;;;;6.32;2.00;;;;;;;14.07;46.66;101662.19;4990557;28;20122;-74
2021/04/09 01:44:27;;;;;;;8.75;1.88;;;;;;;13.99;46.84;101655.84;4990720;28;20121;-74
2021/04/09 01:46:57;;;;;;;7.47;2.67;;;;;;;14.05;46.99;101657.69;4990975;28;20084;-74
2021/04/09 01:49:26;;;;;;;10.82;2.30;;;;;;;14.04;47.14;101651.53;4990949;28;20494;-73
2021/04/09 01:51:55;;;;;;;5.25;1.67;;;;;;;14.08;47.10;101658.66;4990476;28;20125;-73
2021/04/09 01:54:25;;;;;;;9.82;2.03;;;;;;;14.15;47.21;101647.25;4991041;28;20056;-73
2021/04/09 01:56:54;;;;;;;7.97;2.10;;;;;;;14.12;47.81;101652.50;4990830;28;20038;-74
2021/04/09 01:59:21;;;;;;;11.43;2.10;;;;;;;14.04;48.54;101650.63;4990517;28;20077;-74
2021/04/09 02:01:50;;;;;;;8.65;2.13;;;;;;;14.04;48.94;101642.66;4990103;28;20034;-74
2021/04/09 02:04:20;;;;;;;4.00;1.75;;;;;;;13.98;48.72;101651.41;4991655;28;20102;-74
2021/04/09 02:06:49;;;;;;;8.60;2.25;;;;;;;13.90;48.66;101653.97;4973247;28;20041;-73
2021/04/09 02:09:17;;;;;;;6.95;1.80;;;;;;;13.91;48.29;101654.84;4990701;28;20073;-74
2021/04/09 02:11:45;;;;;;;6.85;1.90;;;;;;;13.90;48.27;101653.06;4991008;28;20505;-73
2021/04/09 02:14:14;;;;;;;4.22;1.65;;;;;;;13.72;48.17;101663.38;4990335;28;20049;-73
2021/04/09 02:16:43;;;;;;;10.70;2.00;;;;;;;13.69;48.34;101663.31;4989533;28;20449;-74
2021/04/09 02:19:11;;;;;;;7.65;1.67;;;;;;;13.72;48.35;101663.38;4989844;28;20038;-74
2021/04/09 02:21:39;;;;;;;8.00;1.88;;;;;;;13.80;48.29;101667.94;4989797;28;20041;-73
2021/04/09 02:24:08;;;;;;;8.57;1.85;;;;;;;13.76;48.18;101654.59;4989995;28;20089;-74
2021/04/09 02:26:35;;;;;;;9.23;2.13;;;;;;;13.77;48.28;101662.59;4989798;28;20404;-73
2021/04/09 02:29:04;;;;;;;6.75;1.73;;;;;;;13.84;48.40;101650.31;4989941;28;20034;-73
2021/04/09 02:31:32;;;;;;;11.90;2.00;;;;;;;13.80;48.83;101656.41;4988130;28;20081;-73
2021/04/09 02:33:59;;;;;;;12.43;2.60;;;;;;;13.78;49.37;101659.06;4989602;28;20786;-73
2021/04/09 02:36:27;;;;;;;9.88;1.75;;;;;;;13.76;49.95;101643.97;4972833;28;20050;-73
2021/04/09 02:39:00;;;;;;;8.30;1.55;;;;;;;13.77;49.85;101665.25;4971463;28;20071;-73
2021/04/09 02:41:32;;;;;;;9.55;2.00;;;;;;;13.73;49.67;101665.13;4988759;28;20035;-73
2021/04/09 02:44:02;;;;;;;12.25;3.75;;;;;;;13.68;49.62;101669.47;4989576;28;20046;-73
2021/04/09 02:46:35;;;;;;;9.95;1.80;;;;;;;13.62;49.57;101666.72;4989371;28;20061;-74
2021/04/09 02:49:10;;;;;;;9.13;2.63;;;;;;;13.56;49.61;101670.16;4989512;28;20058;-74
2021/04/09 02:51:40;;;;;;;10.35;2.70;;;;;;;13.50;49.22;101678.91;4987045;28;20383;-74
2021/04/09 02:54:11;;;;;;;11.65;1.73;;;;;;;13.48;48.65;101675.31;4988971;28;20121;-74
2021/04/09 02:56:41;;;;;;;6.95;1.60;;;;;;;13.41;48.88;101684.03;4990015;28;20050;-74
2021/04/09 02:59:12;;;;;;;8.27;2.50;;;;;;;13.49;48.34;101678.88;4989663;28;20042;-74
2021/04/09 03:01:42;;;;;;;6.90;1.20;;;;;;;13.42;48.49;101675.22;4989231;28;20054;-74
2021/04/09 03:04:10;;;;;;;25.35;4.05;;;;;;;13.32;49.21;101670.63;4989812;28;20121;-74
2021/04/09 03:06:38;;;;;;;11.43;2.25;;;;;;;13.36;49.54;101679.50;4989969;28;20133;-74
2021/04/09 03:09:06;;;;;;;9.23;2.00;;;;;;;13.30;49.90;101671.44;4989219;28;20066;-74
2021/04/09 03:11:34;;;;;;;10.50;1.42;;;;;;;13.29;50.38;101675.84;4988801;28;20069;-74
2021/04/09 03:14:03;;;;;;;7.78;1.67;;;;;;;13.28;50.47;101684.66;4989123;28;20129;-74
2021/04/09 03:16:35;;;;;;;5.15;1.50;;;;;;;13.32;50.51;101689.19;4988905;28;20038;-74
2021/04/09 03:19:02;;;;;;;7.90;1.55;;;;;;;13.35;50.32;101681.25;4990010;28;20042;-74
2021/04/09 03:21:29;;;;;;;12.25;1.73;;;;;;;13.35;50.14;101683.91;4989344;28;20042;-74
2021/04/09 03:23:57;;;;;;;8.85;1.60;;;;;;;13.39;50.06;101693.69;4989093;28;20030;-74
2021/04/09 03:26:24;;;;;;;5.00;1.60;;;;;;;13.42;49.94;101703.50;4989076;28;20137;-74
2021/04/09 03:28:52;;;;;;;7.68;1.80;;;;;;;13.37;49.47;101692.81;4988979;28;20521;-74
2021/04/09 03:31:19;;;;;;;7.00;1.40;;;;;;;13.32;48.38;101698.88;4988475;28;20034;-73
2021/04/09 03:33:46;;;;;;;8.60;1.63;;;;;;;13.35;47.81;101696.28;4989804;28;20058;-74
2021/04/09 03:36:13;;;;;;;8.65;2.33;;;;;;;13.36;47.62;101703.38;4989161;28;20877;-73
2021/04/09 03:38:40;;;;;;;9.70;1.80;;;;;;;13.36;47.54;101695.41;4989033;28;20130;-73
2021/04/09 03:41:08;;;;;;;9.40;1.83;;;;;;;13.35;47.93;101699.81;4988617;28;20550;-73
2021/04/09 03:43:35;;;;;;;7.57;2.00;;;;;;;13.37;48.27;101689.25;4988095;28;20049;-73
2021/04/09 03:46:04;;;;;;;5.45;1.65;;;;;;;13.32;47.94;101694.47;4989239;28;20130;-73
2021/04/09 03:48:31;;;;;;;9.48;1.63;;;;;;;13.32;47.60;101694.47;4988027;28;20402;-73
2021/04/09 03:50:59;;;;;;;5.68;1.33;;;;;;;13.26;47.72;101717.34;4987901;28;20129;-73
2021/04/09 03:53:26;;;;;;;7.15;1.98;;;;;;;13.25;47.58;101705.84;4988861;28;20027;-73
2021/04/09 03:55:52;;;;;;;5.32;1.30;;;;;;;13.19;47.19;101697.75;4988569;28;20047;-73
2021/04/09 03:58:20;;;;;;;4.38;0.90;;;;;;;13.13;46.14;101713.50;4988625;28;20078;-72
2021/04/09 04:00:47;;;;;;;6.10;1.95;;;;;;;13.12;45.21;101723.25;4989111;28;20066;-73
2021/04/09 04:03:16;;;;;;;8.15;1.52;;;;;;;13.14;45.33;101710.00;4971048;28;20066;-73
2021/04/09 04:05:43;;;;;;;12.40;1.73;;;;;;;13.18;45.37;101719.81;4988593;28;20043;-73
2021/04/09 04:08:10;;;;;;;13.63;1.73;;;;;;;13.29;46.03;101714.72;4989196;28;20038;-73
2021/04/09 04:10:37;;;;;;;6.03;1.48;;;;;;;13.34;47.15;101710.41;4988735;28;20046;-73
2021/04/09 04:13:04;;;;;;;9.07;1.85;;;;;;;13.40;47.66;101710.50;4987926;28;20121;-73
2021/04/09 04:15:32;;;;;;;6.60;1.30;;;;;;;13.45;47.97;101725.69;4988903;28;20089;-72
2021/04/09 04:17:59;;;;;;;10.93;2.17;;;;;;;13.35;48.09;101704.25;4989294;28;20058;-73
2021/04/09 04:20:27;;;;;;;8.98;2.17;;;;;;;13.32;47.24;101720.09;4988986;28;20117;-73
2021/04/09 04:22:54;;;;;;;3.85;1.30;;;;;;;13.33;47.70;101729.81;4988335;28;20125;-74
2021/04/09 04:25:21;;;;;;;6.43;1.70;;;;;;;13.37;47.89;101735.25;4988565;28;20046;-73
2021/04/09 04:27:48;;;;;;;7.45;1.55;;;;;;;13.45;47.74;101736.28;4989029;28;20165;-73
2021/04/09 04:30:16;;;;;;;9.50;1.60;;;;;;;13.51;47.29;101733.75;4989066;28;20463;-73
2021/04/09 04:32:43;;;;;;;7.47;1.67;;;;;;;13.56;47.05;101742.69;4988019;28;20035;-73
2021/04/09 04:35:11;;;;;;;8.13;2.05;;;;;;;13.51;46.83;101740.81;4987811;28;20129;-73
2021/04/09 04:37:39;;;;;;;6.22;1.80;;;;;;;13.57;46.08;101738.28;4988369;28;20050;-73
2021/04/09 04:40:08;;;;;;;4.35;1.25;;;;;;;13.57;45.09;101751.53;4988599;28;20030;-73
2021/04/09 04:42:35;;;;;;;6.53;1.10;;;;;;;13.63;44.51;101767.56;4988530;28;20039;-74
2021/04/09 04:45:03;;;;;;;4.30;1.50;;;;;;;13.68;43.97;101762.34;4987882;28;20065;-73
2021/04/09 04:47:30;;;;;;;11.40;1.38;;;;;;;13.70;43.71;101757.97;4988643;28;20379;-74
2021/04/09 04:49:57;;;;;;;4.63;1.10;;;;;;;13.66;43.26;101762.31;4988977;28;20049;-74
2021/04/09 04:52:24;;;;;;;5.63;1.52;;;;;;;13.58;42.84;101761.28;4971285;28;20065;-74
2021/04/09 04:54:53;;;;;;;4.63;1.48;;;;;;;13.64;42.97;101761.41;4971724;28;20671;-75
2021/04/09 04:57:20;;;;;;;5.72;1.58;;;;;;;13.80;42.88;101759.91;4991903;28;20121;-73
2021/04/09 04:59:47;;;;;;;3.05;0.90;;;;;;;14.07;42.81;101756.88;4992263;28;20045;-73
2021/04/09 05:02:15;;;;;;;7.47;1.17;;;;;;;14.28;42.46;101731.56;4991760;28;20045;-74
2021/04/09 05:04:42;;;;;;;13.88;2.15;;;;;;;14.37;42.41;101733.50;4992080;28;20062;-74
2021/04/09 05:07:09;;;;;;;8.57;1.38;;;;;;;14.47;42.30;101745.16;4974402;28;20125;-74
2021/04/09 05:09:36;;;;;;;4.47;1.13;;;;;;;14.71;41.84;101754.41;4991375;28;20046;-74
2021/04/09 05:12:07;;;;;;;5.30;1.10;;;;;;;14.57;41.61;101720.53;4991735;28;20078;-74
2021/04/09 05:14:34;;;;;;;4.38;1.08;;;;;;;14.62;41.00;101716.19;4991563;28;20049;-75
2021/04/09 05:17:01;;;;;;;5.68;1.58;;;;;;;14.47;40.33;101754.03;4986121;28;20123;-73
2021/04/09 05:19:28;;;;;;;4.63;0.90;;;;;;;14.56;40.69;101763.94;4981644;28;20054;-75
2021/04/09 05:21:55;;;;;;;7.75;2.10;;;;;;;14.59;40.07;101758.63;4991104;28;20039;-74
2021/04/09 05:24:22;;;;;;;4.63;1.00;;;;;;;14.91;40.73;101769.72;4990869;28;20045;-74
2021/04/09 05:26:49;;;;;;;6.85;1.40;;;;;;;15.09;40.84;101762.94;4990099;28;20138;-72
2021/04/09 05:29:18;;;;;;;5.93;0.90;;;;;;;15.15;40.75;101772.75;4971699;28;20097;-73
2021/04/09 05:31:45;;;;;;;4.18;0.98;;;;;;;15.30;40.98;101770.25;4990149;28;20557;-73
2021/04/09 05:34:12;;;;;;;6.90;1.30;;;;;;;15.42;40.40;101759.78;4989657;28;20049;-73
2021/04/09 05:36:39;;;;;;;5.78;1.20;;;;;;;15.61;39.97;101760.03;4971308;28;20121;-74
2021/04/09 05:39:08;;;;;;;6.45;1.13;;;;;;;15.76;39.31;101763.72;4990381;28;20473;-73
2021/04/09 05:41:36;;;;;;;6.30;1.20;;;;;;;16.01;38.79;101772.88;4990840;28;20129;-73
2021/04/09 05:44:03;;;;;;;7.40;1.50;;;;;;;16.24;38.09;101760.66;4990847;28;20417;-73
2021/04/09 05:46:32;;;;;;;3.38;1.23;;;;;;;16.28;37.85;101761.56;4990813;28;20068;-73
2021/04/09 05:48:59;;;;;;;8.15;1.30;;;;;;;16.29;37.40;101782.91;4990219;28;20034;-73
2021/04/09 05:51:26;;;;;;;4.30;0.90;;;;;;;16.24;37.44;101765.09;4989885;28;20126;-74
2021/04/09 05:53:53;;;;;;;4.88;1.35;;;;;;;16.13;37.08;101759.69;4987218;28;20097;-74
2021/04/09 06:09:06;;;;;;;5.30;1.00;;;;;;;17.36;37.15;101783.63;5087452;27;20359;-70
2021/04/09 06:11:33;;;;;;;3.97;0.95;;;;;;;17.20;36.53;101782.66;5096392;28;20087;-70
2021/04/09 06:14:00;;;;;;;7.13;1.00;;;;;;;17.13;36.36;101788.88;5106104;28;20048;-70
2021/04/09 06:16:27;;;;;;;5.10;1.23;;;;;;;17.39;36.32;101789.84;5091316;28;20036;-70
2021/04/09 06:18:54;;;;;;;6.72;1.23;;;;;;;17.20;36.41;101787.97;5094163;28;20050;-70
2021/04/09 06:21:21;;;;;;;5.72;1.27;;;;;;;17.06;36.76;101779.03;5087416;28;20440;-70
2021/04/09 06:23:48;;;;;;;3.58;1.15;;;;;;;16.63;37.80;101804.53;5090841;28;20052;-70
2021/04/09 06:26:17;;;;;;;11.63;1.55;;;;;;;16.82;38.12;101771.75;5087597;28;20041;-70
2021/04/09 06:28:43;;;;;;;9.00;1.80;;;;;;;16.33;38.73;101800.72;5087830;28;20111;-69
2021/04/09 06:31:11;;;;;;;8.63;1.90;;;;;;;16.20;39.29;101809.47;5088197;28;20603;-70
2021/04/09 06:33:39;;;;;;;6.78;1.73;;;;;;;15.95;39.87;101812.75;5095599;28;20127;-69
2021/04/09 06:36:07;;;;;;;6.72;1.58;;;;;;;15.68;40.25;101794.72;5103955;28;20043;-69
2021/04/09 06:38:35;;;;;;;8.43;1.85;;;;;;;15.52;40.84;101814.94;5096544;28;20113;-69
2021/04/09 06:41:03;;;;;;;10.18;2.30;;;;;;;15.43;41.83;101797.91;5091797;28;20412;-70
2021/04/09 06:43:32;;;;;;;5.28;1.35;;;;;;;15.26;43.03;101811.03;5087258;28;20032;-70
2021/04/09 06:46:00;;;;;;;6.72;1.70;;;;;;;15.19;44.28;101818.88;5095875;28;20074;-70
2021/04/09 06:48:27;;;;;;;5.65;1.85;;;;;;;15.38;44.60;101829.78;5101074;28;20054;-70
2021/04/09 06:50:56;;;;;;;5.80;1.80;;;;;;;15.46;44.50;101830.78;5092616;28;20040;-70
2021/04/09 06:53:24;;;;;;;7.85;1.90;;;;;;;15.56;44.46;101834.50;5099581;28;20052;-69
2021/04/09 06:55:52;;;;;;;4.82;1.65;;;;;;;15.43;44.66;101844.06;5088517;28;20040;-70
2021/04/09 06:58:23;;;;;;;8.05;1.20;;;;;;;15.40;44.36;101841.38;5096871;28;20552;-70
2021/04/09 07:00:53;;;;;;;3.95;1.13;;;;;;;15.76;42.85;101838.28;5086151;28;20031;-70
2021/04/09 07:03:20;;;;;;;4.32;1.40;;;;;;;15.77;42.06;101852.50;5097130;28;20040;-70
2021/04/09 07:05:50;;;;;;;3.40;1.67;;;;;;;15.91;41.77;101851.78;5085607;28;20036;-69
2021/04/09 07:08:17;;;;;;;6.40;1.30;;;;;;;16.26;40.76;101849.50;5110131;28;20055;-70
2021/04/09 07:10:44;;;;;;;3.70;1.20;;;;;;;16.33;40.64;101855.78;5097398;28;20039;-69
2021/04/09 07:13:13;;;;;;;3.80;1.13;;;;;;;16.30;40.81;101850.41;5102775;28;20029;-70
2021/04/09 07:15:43;;;;;;;5.57;1.20;;;;;;;16.20;40.98;101856.53;5102188;28;20055;-70
2021/04/09 07:18:13;;;;;;;5.22;1.30;;;;;;;16.11;41.12;101860.00;5098925;28;20043;-70
2021/04/09 07:20:40;;;;;;;4.93;1.55;;;;;;;15.95;41.78;101842.03;5106862;28;20032;-70
2021/04/09 07:23:10;;;;;;;6.72;1.30;;;;;;;15.94;42.37;101849.16;5100126;28;20508;-70
2021/04/09 07:25:38;;;;;;;4.97;1.33;;;;;;;15.87;42.46;101857.06;5107354;28;20036;-70
2021/04/09 07:28:11;;;;;;;3.22;0.95;;;;;;;16.07;42.39;101851.97;5099274;28;20044;-70
2021/04/09 07:30:39;;;;;;;5.97;1.30;;;;;;;16.20;41.42;101840.56;5109928;28;20035;-70
2021/04/09 07:33:07;;;;;;;5.45;1.30;;;;;;;16.14;41.34;101862.72;5099694;28;20040;-70
2021/04/09 07:35:45;;;;;;;5.57;1.08;;;;;;;16.00;40.86;101851.00;5097673;28;20528;-70
2021/04/09 07:38:23;;;;;;;9.20;1.38;;;;;;;15.98;40.72;101882.03;5081106;28;20472;-70
2021/04/09 07:40:58;;;;;;;3.47;1.13;;;;;;;15.71;40.71;101871.94;5108697;28;20089;-70
2021/04/09 07:43:25;;;;;;;2.78;1.50;;;;;;;15.46;40.78;101875.16;5094920;28;20512;-69
2021/04/09 07:45:56;;;;;;;8.63;1.40;;;;;;;15.27;41.04;101883.75;5093212;28;20040;-69
2021/04/09 07:48:30;;;;;;;7.10;1.90;;;;;;;15.21;40.72;101883.66;5093014;28;20040;-70
2021/04/09 07:50:59;;;;;;;8.27;1.63;;;;;;;15.27;40.15;101894.38;5094773;28;20036;-70
2021/04/09 07:53:42;;;;;;;7.53;1.10;;;;;;;15.32;39.62;101879.38;5093053;28;20032;-69
2021/04/09 07:56:10;;;;;;;2.17;1.08;;;;;;;15.23;38.92;101877.47;5110440;28;20110;-69
2021/04/09 07:58:38;;;;;;;4.43;1.27;;;;;;;15.45;38.82;101868.03;5099799;28;20127;-69
2021/04/09 08:01:06;;;;;;;3.35;1.00;;;;;;;15.56;39.02;101887.72;5106255;28;20115;-69
2021/04/09 08:03:36;;;;;;;7.35;1.40;;;;;;;15.64;38.82;101880.75;5093130;28;20079;-69
2021/04/09 08:06:13;;;;;;;7.47;1.70;;;;;;;15.59;38.95;101886.88;5074274;28;20126;-69
2021/04/09 08:08:57;;;;;;;4.30;1.23;;;;;;;15.83;39.03;101890.75;5104090;28;20059;-69
2021/04/09 08:11:31;;;;;;;3.40;1.05;;;;;;;15.89;38.84;101876.59;5102724;28;20088;-69
2021/04/09 08:14:03;;;;;;;7.65;1.88;;;;;;;16.01;38.43;101886.53;5099692;28;20031;-69
2021/04/09 08:16:36;;;;;;;4.43;1.20;;;;;;;15.81;38.59;101902.28;5103386;28;20042;-70
2021/04/09 08:19:07;;;;;;;7.43;2.10;;;;;;;15.85;38.79;101906.75;5105890;28;20050;-69
2021/04/09 08:21:39;;;;;;;6.57;1.50;;;;;;;15.90;38.22;101905.91;5091085;28;20036;-70
2021/04/09 08:24:09;;;;;;;3.85;1.10;;;;;;;16.28;38.17;101897.47;5101305;28;20466;-69
2021/04/09 08:26:37;;;;;;;4.55;1.25;;;;;;;16.39;38.17;101908.25;5105968;28;20035;-69
2021/04/09 08:29:08;;;;;;;10.57;1.20;;;;;;;16.79;37.70;101909.56;5105258;28;20035;-70
2021/04/09 08:31:36;;;;;;;8.25;1.25;;;;;;;17.12;37.56;101896.47;5099848;28;20042;-70
2021/04/09 08:34:03;;;;;;;7.78;1.23;;;;;;;17.37;37.19;101894.84;5108293;28;20146;-70
2021/04/09 08:36:31;;;;;;;3.55;1.02;;;;;;;17.88;36.27;101902.25;5104666;28;20028;-70
2021/04/09 08:39:01;;;;;;;4.70;1.02;;;;;;;17.41;36.04;101894.88;5100658;28;20468;-70
2021/04/09 08:41:29;;;;;;;6.45;1.13;;;;;;;16.97;36.46;101907.03;5094091;28;20119;-70
2021/04/09 08:43:57;;;;;;;9.82;2.30;;;;;;;17.39;36.18;101906.44;5101720;28;20039;-69
2021/04/09 08:46:24;;;;;;;4.68;1.20;;;;;;;17.23;36.88;101894.78;5107768;28;20619;-70
2021/04/09 08:48:55;;;;;;;5.72;1.30;;;;;;;17.30;36.34;101901.94;5092883;28;20061;-69
2021/04/09 08:51:24;;;;;;;4.70;1.50;;;;;;;16.96;36.63;101911.47;5108759;28;20043;-69
2021/04/09 08:53:51;;;;;;;7.88;1.27;;;;;;;17.25;36.37;101908.13;5111201;28;20039;-69
2021/04/09 08:56:35;;;;;;;6.60;1.30;;;;;;;17.45;35.75;101904.72;5101104;28;20040;-69
2021/04/09 08:59:03;;;;;;;5.32;1.10;;;;;;;17.38;35.96;101901.97;5091695;28;20032;-70
2021/04/09 09:01:30;;;;;;;5.68;1.27;;;;;;;17.31;36.00;101906.41;5094115;28;20511;-70
2021/04/09 09:04:30;;;;;;;4.25;1.15;;;;;;;16.95;35.99;101900.78;5091739;28;20032;-70
2021/04/09 09:06:57;;;;;;;8.68;1.80;;;;;;;17.26;36.21;101900.13;5091378;28;20054;-69
2021/04/09 09:09:28;;;;;;;5.53;1.67;;;;;;;17.24;36.49;101903.66;5092470;28;20036;-69
2021/04/09 09:11:57;;;;;;;3.80;1.27;;;;;;;17.18;36.06;101900.97;5092289;28;20114;-69
2021/04/09 09:14:41;;;;;;;5.57;1.42;;;;;;;17.19;35.55;101902.75;5092035;28;20043;-69
2021/04/09 09:17:40;;;;;;;7.00;1.60;;;;;;;17.21;35.10;101895.63;5100442;28;20313;-70
2021/04/09 09:20:11;;;;;;;10.52;1.60;;;;;;;17.47;35.37;101897.56;5091506;28;20068;-70
2021/04/09 09:22:55;;;;;;;6.13;1.75;;;;;;;17.36;36.15;101895.72;5093112;28;20036;-71
2021/04/09 09:25:41;;;;;;;5.25;1.63;;;;;;;17.63;36.10;101897.69;5096367;28;20053;-70
2021/04/09 09:28:17;;;;;;;6.07;1.33;;;;;;;17.72;35.39;101876.38;5107870;28;20082;-71
2021/04/09 09:30:54;;;;;;;4.88;1.50;;;;;;;17.80;35.29;101886.19;5104861;28;20035;-71
2021/04/09 09:33:26;;;;;;;8.10;1.98;;;;;;;18.16;35.21;101877.41;5096589;28;20043;-70
2021/04/09 09:35:58;;;;;;;7.72;1.80;;;;;;;17.65;35.90;101870.13;5091180;28;20318;-71
2021/04/09 09:38:46;;;;;;;8.40;1.67;;;;;;;17.15;36.53;101893.81;5097885;28;20040;-70
2021/04/09 09:41:34;;;;;;;10.65;2.17;;;;;;;17.48;36.67;101870.00;5093447;28;20131;-69
2021/04/09 09:44:04;;;;;;;7.88;1.70;;;;;;;17.84;36.34;101882.66;5076401;28;20036;-69
2021/04/09 09:47:02;;;;;;;8.32;1.77;;;;;;;17.89;35.45;101898.72;5104852;28;20070;-69
2021/04/09 09:49:34;;;;;;;5.13;1.73;;;;;;;17.87;35.93;101905.81;5024617;28;20049;-69
2021/04/09 09:52:02;;;;;;;8.48;1.73;;;;;;;18.31;34.68;101888.13;5087728;28;20056;-69
2021/04/09 09:54:31;;;;;;;7.75;1.65;;;;;;;18.60;33.50;101890.00;5101768;28;20042;-70
2021/04/09 09:56:59;;;;;;;8.70;1.95;;;;;;;18.21;33.41;101886.34;5095693;28;20038;-69
2021/04/09 09:59:29;;;;;;;6.10;1.88;;;;;;;18.49;33.27;101883.72;5097251;28;20044;-70
2021/04/09 10:01:58;;;;;;;5.03;1.25;;;;;;;18.99;33.01;101889.09;5094780;28;20112;-70
2021/04/09 10:04:26;;;;;;;5.07;1.45;;;;;;;19.53;32.19;101892.59;5102389;28;20089;-70
2021/04/09 10:06:54;;;;;;;5.35;1.52;;;;;;;19.57;32.21;101889.00;5107925;28;20036;-70
2021/04/09 10:09:25;;;;;;;6.35;1.65;;;;;;;19.35;32.17;101875.66;5110968;28;20047;-69
2021/04/09 10:11:52;;;;;;;6.60;1.60;;;;;;;19.03;32.20;101886.41;5110475;28;20031;-69
2021/04/09 10:14:19;;;;;;;5.93;1.38;;;;;;;18.56;32.95;101902.47;5110494;28;20510;-69
2021/04/09 10:16:47;;;;;;;7.97;1.67;;;;;;;18.46;33.11;101878.34;5106352;28;20032;-69
2021/04/09 10:19:15;;;;;;;7.15;1.73;;;;;;;18.73;32.30;101899.81;5110154;28;20047;-69
2021/04/09 10:21:43;;;;;;;6.38;1.92;;;;;;;18.58;32.18;101891.75;5111058;28;20040;-69
2021/04/09 10:24:13;;;;;;;8.10;1.65;;;;;;;18.67;32.30;101899.81;5110441;28;20043;-69
2021/04/09 10:26:42;;;;;;;5.80;1.85;;;;;;;18.79;32.71;101901.59;5102700;28;20033;-69
2021/04/09 10:29:26;;;;;;;10.23;2.03;;;;;;;18.76;32.58;101902.50;5090031;28;20044;-69
2021/04/09 10:31:55;;;;;;;8.63;1.75;;;;;;;18.86;32.63;101898.00;5090513;28;20066;-69
2021/04/09 10:34:24;;;;;;;7.70;1.35;;;;;;;19.14;32.51;101904.25;5089898;28;20048;-68
2021/04/09 10:36:51;;;;;;;8.68;1.80;;;;;;;18.88;32.57;101902.50;5099709;28;20028;-68
2021/04/09 10:39:20;;;;;;;9.35;1.98;;;;;;;18.50;32.98;101896.19;5110816;28;20135;-68
2021/04/09 10:41:49;;;;;;;10.63;1.63;;;;;;;18.29;33.17;101886.34;5107172;28;20039;-69
2021/04/09 10:44:18;;;;;;;7.07;1.83;;;;;;;18.27;33.59;101898.81;5100653;28;20028;-69
2021/04/09 10:46:47;;;;;;;6.68;2.30;;;;;;;18.07;33.84;101901.44;5093319;28;20071;-69
2021/04/09 10:49:16;;;;;;;9.73;2.47;;;;;;;17.87;34.54;101911.16;5093397;28;20097;-69
2021/04/09 10:51:45;;;;;;;4.85;1.52;;;;;;;18.11;34.07;101887.22;5096115;28;20028;-68
2021/04/09 10:54:14;;;;;;;9.27;1.77;;;;;;;17.92;33.64;101888.00;5107001;28;20109;-69
2021/04/09 10:56:43;;;;;;;5.95;1.60;;;;;;;17.34;33.61;101889.47;5114476;28;20042;-68
2021/04/09 10:59:12;;;;;;;8.15;1.85;;;;;;;16.91;34.67;101905.22;5101034;28;20031;-69
2021/04/09 11:01:40;;;;;;;7.60;1.85;;;;;;;17.16;34.87;101894.72;5107956;28;20039;-68
2021/04/09 11:04:07;;;;;;;7.47;1.50;;;;;;;17.13;35.01;101892.94;5095172;28;20028;-68
2021/04/09 11:06:36;;;;;;;7.93;1.92;;;;;;;17.12;35.01;101888.47;5112274;28;20417;-68
2021/04/09 11:09:07;;;;;;;5.90;1.50;;;;;;;17.28;34.48;101878.78;5113949;28;20047;-68
2021/04/09 11:11:35;;;;;;;5.85;1.92;;;;;;;17.24;34.71;101901.00;5110384;28;20031;-69
2021/04/09 11:14:06;;;;;;;12.05;2.03;;;;;;;17.27;34.80;101891.22;5099659;28;20179;-68
2021/04/09 11:16:55;;;;;;;5.82;1.73;;;;;;;17.38;34.13;101901.97;5114013;28;20126;-68
2021/04/09 11:19:32;;;;;;;6.35;1.50;;;;;;;17.51;33.63;101893.16;5109432;28;20047;-69
2021/04/09 11:22:03;;;;;;;5.15;1.52;;;;;;;17.23;34.29;101897.44;5104387;28;20046;-69
2021/04/09 11:24:33;;;;;;;6.57;1.70;;;;;;;17.33;34.39;101893.94;5103668;28;20025;-70
2021/04/09 11:27:02;;;;;;;6.97;1.95;;;;;;;17.25;34.40;101893.00;5099440;28;20028;-70
2021/04/09 11:29:31;;;;;;;3.60;1.50;;;;;;;17.23;34.16;101888.53;5098967;28;20050;-71
2021/04/09 11:32:10;;;;;;;6.40;1.52;;;;;;;17.34;34.11;101893.03;5103504;28;20038;-70
2021/04/09 11:34:38;;;;;;;3.97;1.48;;;;;;;17.56;33.96;101898.50;5110516;28;20035;-70
2021/04/09 11:37:06;;;;;;;7.28;1.40;;;;;;;17.40;34.34;101871.72;5113319;28;20039;-70
2021/04/09 11:39:33;;;;;;;7.65;1.70;;;;;;;17.47;34.58;101878.88;5106767;28;20445;-72
2021/04/09 11:42:04;;;;;;;7.03;2.22;;;;;;;17.91;33.90;101881.81;5100678;28;20388;-71
2021/04/09 11:44:36;;;;;;;3.30;1.10;;;;;;;17.76;34.08;101881.75;5087877;28;20081;-70
2021/04/09 11:47:19;;;;;;;6.93;1.80;;;;;;;17.74;33.99;101871.91;5104941;28;20144;-70
2021/04/09 11:50:02;;;;;;;8.40;2.35;;;;;;;17.58;34.03;101881.63;5092751;28;20040;-70
2021/04/09 11:52:30;;;;;;;7.68;1.67;;;;;;;17.56;34.02;101882.50;5089498;28;20055;-70
2021/04/09 11:54:57;;;;;;;4.70;1.40;;;;;;;17.57;33.91;101884.28;5089814;28;20039;-71
2021/04/09 11:57:27;;;;;;;6.20;2.13;;;;;;;17.34;34.22;101885.03;5103012;28;20484;-71
2021/04/09 11:59:55;;;;;;;6.85;1.98;;;;;;;17.36;34.75;101869.03;5112520;28;20032;-70
2021/04/09 12:02:26;;;;;;;7.47;1.80;;;;;;;17.47;34.58;101872.66;5112172;28;20063;-70